Lehigh Valley International Airport
KABE : now visible

Airfield :











YOU CAN JOIN US ON...

 
LOGIN :

Register | Disclaimer

   EN    FR    IT 

 









Legend :    VFR   Marginal VFR   IFR   Intensive IFR   Very Intensive IFR
Visi :
Ceiling :
>= 8 km
>= 3000ft
5 to 8 km
1000 to 3000 ft
1500m to 5 km
500 to 1000 ft
800 to 1500m
200 to 500 ft
< 800m
< 200 ft
Symbols :   Thunderstorms  Fog  Heavy snow  Heavy precipitations  Wind > 20 kt






- Airport Elevation : 393 ft
- IATA code : ABE


KABE - Lehigh Valley International

CURRENT METAR :
  • 041951Z 26019G27KT 10SM BKN033 25/19 A2970 RMK AO2 PK WND 25029/1922 RAE02 SLP055 P0000 T02500189 $

EXPIRED METARs :
  • 041926Z 24016G29KT 10SM FEW030 BKN120 24/19 A2967 RMK AO2 PK WND 25029/1922 RAE02 P0000 T02440194 $
  • 041851Z 29009G20KT 10SM -RA FEW060 SCT075 OVC110 22/18 A2960 RMK AO2 PK WND 31035/1743 RAB1738 SLP020 P0041 T02220183 $
  • 041724Z 32016G45KT 1SM +RA BR FEW008 BKN017 OVC029 20/18 A2950 RMK AO2 PK WND 32045/1715 WSHFT 1658 P0031 T02000183
  • 041713Z 33020G33KT 1 1/4SM +RA BR SCT008 BKN012 OVC026 20/19 A2947 RMK AO2 PK WND 34039/1701 WSHFT 1658 P0020 T02000189

TAF KABE
Valid from the 04 at 19:00 until the 05 at 18:00 UTC


041858Z 0419/0518 30020G35KT P6SM VCSH SCT010 BKN050
FM042100 30025G40KT P6SM SCT050
FM042300 29015KT P6SM SCT200
FM050100 25008KT P6SM SCT120
FM050600 VRB02KT 5SM BR SCT200
FM051100 32005KT P6SM SCT030
KZNY FIR / North America



MET'MAP, your aeronautical weather chart ! - Copyright ORBIFLY December 2007 - Disclaimer

ORBIFLY MET'MAP TEAM :

Programming & Development : Alexandra Zaïnal
Concept & original design : Baudouin d'Aumeries
Assistance for programming : Marc-Olivier Méhu
Technical & hardware support : Manuel Goepfert

Contact : metmap@orbifly.com




SOURCES & CREDITS :

   NOAA       Earth
Advisory